createdAt,value
2022-12-25T00:01:49.479Z,3.93
2022-12-25T00:04:17.271Z,3.63
2022-12-25T00:06:45.099Z,4.70
2022-12-25T00:09:14.288Z,5.00
2022-12-25T00:11:42.190Z,4.87
2022-12-25T00:14:10.094Z,4.30
2022-12-25T00:16:37.963Z,5.90
2022-12-25T00:19:06.071Z,4.80
2022-12-25T00:21:33.982Z,3.90
2022-12-25T00:24:01.793Z,3.97
2022-12-25T00:26:30.978Z,3.17
2022-12-25T00:28:59.657Z,5.10
2022-12-25T00:31:27.926Z,3.53
2022-12-25T00:33:56.102Z,3.90
2022-12-25T00:36:24.572Z,3.43
2022-12-25T00:38:52.395Z,4.03
2022-12-25T00:41:42.871Z,5.13
2022-12-25T00:44:13.729Z,4.27
2022-12-25T00:46:42.168Z,4.13
2022-12-25T00:49:10.896Z,4.53
2022-12-25T00:51:38.963Z,3.50
2022-12-25T00:54:06.838Z,9.30
2022-12-25T00:56:35.278Z,3.43
2022-12-25T00:59:03.197Z,4.97
2022-12-25T01:01:32.853Z,4.73
2022-12-25T01:04:01.044Z,4.37
2022-12-25T01:06:29.651Z,3.67
2022-12-25T01:09:14.510Z,3.30
2022-12-25T01:11:42.324Z,4.60
2022-12-25T01:14:10.236Z,3.27
2022-12-25T01:16:39.758Z,4.80
2022-12-25T01:19:07.818Z,6.00
2022-12-25T01:21:35.621Z,3.30
2022-12-25T01:24:03.479Z,3.00
2022-12-25T01:26:31.283Z,3.20
2022-12-25T01:28:59.067Z,3.77
2022-12-25T01:31:27.003Z,2.50
2022-12-25T01:33:56.243Z,4.10
2022-12-25T01:36:26.006Z,3.60
2022-12-25T01:38:54.729Z,3.93
2022-12-25T01:41:25.035Z,3.20
2022-12-25T01:44:01.927Z,2.93
2022-12-25T01:46:30.395Z,2.97
2022-12-25T01:49:03.302Z,3.70
2022-12-25T01:51:35.875Z,3.37
2022-12-25T01:54:06.716Z,3.23
2022-12-25T01:56:35.838Z,3.17
2022-12-25T01:59:05.450Z,3.30
2022-12-25T02:01:33.425Z,2.50
2022-12-25T02:04:10.025Z,3.03
2022-12-25T02:06:37.772Z,2.80
2022-12-25T02:09:05.603Z,2.77
2022-12-25T02:11:50.962Z,3.27
2022-12-25T02:14:18.902Z,3.87
2022-12-25T02:16:57.737Z,3.50
2022-12-25T02:19:41.802Z,3.00
2022-12-25T02:22:17.166Z,3.30
2022-12-25T02:24:59.409Z,3.03
2022-12-25T02:28:03.175Z,4.30
2022-12-25T02:30:37.778Z,3.20
2022-12-25T02:33:29.541Z,3.00
2022-12-25T02:35:58.715Z,2.80
2022-12-25T02:38:32.380Z,2.60
2022-12-25T02:41:05.555Z,3.10
2022-12-25T02:43:55.240Z,3.57
2022-12-25T02:46:43.428Z,2.87
2022-12-25T02:49:31.355Z,2.97
2022-12-25T02:52:21.924Z,2.60
2022-12-25T02:55:12.577Z,2.90
2022-12-25T02:58:01.925Z,2.33
2022-12-25T03:00:48.474Z,3.70
2022-12-25T03:03:36.922Z,2.60
2022-12-25T03:06:23.028Z,2.47
2022-12-25T03:08:54.609Z,2.43
2022-12-25T03:11:33.440Z,3.03
2022-12-25T03:14:18.019Z,2.37
2022-12-25T03:16:53.761Z,5.40
2022-12-25T03:19:44.202Z,2.87
2022-12-25T03:22:35.215Z,2.17
2022-12-25T03:25:21.250Z,2.67
2022-12-25T03:27:51.872Z,2.50
2022-12-25T03:30:37.753Z,3.67
2022-12-25T03:33:43.280Z,3.10
2022-12-25T03:36:09.341Z,2.03
2022-12-25T03:39:03.510Z,2.50
2022-12-25T03:41:58.117Z,2.77
2022-12-25T03:44:49.663Z,2.60
2022-12-25T03:47:40.133Z,3.47
2022-12-25T03:50:32.082Z,2.87
2022-12-25T03:53:22.273Z,2.43
2022-12-25T03:56:08.597Z,2.10
2022-12-25T03:58:54.176Z,4.00
2022-12-25T04:01:39.694Z,2.83
2022-12-25T04:04:25.047Z,4.03
2022-12-25T04:07:10.512Z,3.10
2022-12-25T04:09:57.214Z,2.53
2022-12-25T04:12:42.699Z,2.43
2022-12-25T04:15:29.184Z,3.30
2022-12-25T04:18:14.739Z,3.47
2022-12-25T04:21:00.107Z,3.07
2022-12-25T04:23:45.534Z,2.60
2022-12-25T04:26:32.019Z,3.10
2022-12-25T04:29:17.354Z,2.87
2022-12-25T04:32:02.873Z,2.80
2022-12-25T04:34:48.523Z,2.43
2022-12-25T04:37:16.325Z,6.40
2022-12-25T04:39:44.136Z,2.87
2022-12-25T04:42:13.239Z,3.00
2022-12-25T04:44:41.060Z,3.47
2022-12-25T04:47:11.505Z,2.90
2022-12-25T04:49:39.654Z,3.03
2022-12-25T04:52:07.472Z,3.23
2022-12-25T04:54:35.298Z,3.70
2022-12-25T04:57:03.081Z,2.30
2022-12-25T04:59:32.225Z,2.77
2022-12-25T05:02:00.323Z,3.07
2022-12-25T05:04:28.156Z,2.80
2022-12-25T05:06:55.950Z,2.80
2022-12-25T05:09:23.738Z,2.60
2022-12-25T05:11:51.574Z,2.57
2022-12-25T05:14:19.862Z,2.70
2022-12-25T05:16:49.123Z,2.30
2022-12-25T05:19:17.007Z,7.13
2022-12-25T05:21:44.809Z,2.70
2022-12-25T05:24:12.570Z,2.97
2022-12-25T05:26:40.375Z,3.00
2022-12-25T05:29:08.178Z,2.13
2022-12-25T05:31:36.124Z,4.13
2022-12-25T05:34:05.343Z,3.10
2022-12-25T05:36:33.208Z,9.73
2022-12-25T05:39:00.987Z,2.50
2022-12-25T05:41:33.950Z,9.77
2022-12-25T05:44:02.447Z,2.20
2022-12-25T05:46:30.368Z,2.40
2022-12-25T05:48:58.197Z,2.33
2022-12-25T05:51:27.312Z,2.23
2022-12-25T05:53:55.163Z,2.67
2022-12-25T05:56:22.921Z,2.57
2022-12-25T05:58:51.074Z,2.50
2022-12-25T06:01:20.964Z,3.17
2022-12-25T06:03:48.912Z,3.00
2022-12-25T06:06:16.905Z,2.83
2022-12-25T06:08:46.417Z,2.30
2022-12-25T06:11:15.257Z,2.80
2022-12-25T06:13:43.051Z,2.20
2022-12-25T06:16:13.230Z,2.70
2022-12-25T06:18:43.338Z,2.50
2022-12-25T06:21:12.701Z,2.60
2022-12-25T06:23:40.686Z,3.47
2022-12-25T06:26:11.826Z,2.43
2022-12-25T06:28:39.682Z,2.50
2022-12-25T06:31:08.600Z,2.63
2022-12-25T06:33:37.234Z,2.70
2022-12-25T06:36:09.734Z,2.00
2022-12-25T06:38:38.234Z,2.90
2022-12-25T06:41:08.132Z,2.70
2022-12-25T06:43:37.270Z,4.00
2022-12-25T06:46:06.660Z,2.67
2022-12-25T06:48:35.050Z,2.10
2022-12-25T06:51:04.252Z,3.47
2022-12-25T06:53:38.887Z,2.73
2022-12-25T06:56:10.918Z,3.57
2022-12-25T06:58:40.166Z,3.03
2022-12-25T07:01:15.057Z,4.40
2022-12-25T07:03:45.015Z,3.63
2022-12-25T07:06:12.992Z,2.63
2022-12-25T07:08:40.869Z,3.30
2022-12-25T07:11:08.869Z,2.47
2022-12-25T07:13:36.815Z,2.30
2022-12-25T07:16:07.824Z,3.50
2022-12-25T07:18:36.541Z,2.77
2022-12-25T07:21:08.389Z,2.90
2022-12-25T07:23:36.206Z,2.40
2022-12-25T07:26:04.263Z,2.70
2022-12-25T07:28:33.318Z,3.60
2022-12-25T07:31:07.773Z,2.57
2022-12-25T07:33:36.013Z,2.00
2022-12-25T07:36:05.274Z,2.40
2022-12-25T07:38:33.975Z,5.50
2022-12-25T07:41:01.865Z,4.50
2022-12-25T07:43:29.771Z,2.30
2022-12-25T07:45:58.501Z,2.60
2022-12-25T07:48:28.214Z,2.20
2022-12-25T07:51:00.169Z,2.33
2022-12-25T07:53:28.211Z,4.90
2022-12-25T07:55:58.636Z,2.10
2022-12-25T07:58:26.564Z,1.90
2022-12-25T08:00:54.552Z,2.10
2022-12-25T08:03:22.912Z,3.53
2022-12-25T08:05:52.138Z,3.70
2022-12-25T08:08:19.938Z,2.50
2022-12-25T08:10:48.155Z,2.60
2022-12-25T08:13:15.995Z,2.10
2022-12-25T08:15:43.819Z,4.90
2022-12-25T08:18:11.700Z,2.03
2022-12-25T08:20:39.485Z,3.30
2022-12-25T08:23:08.641Z,4.50
2022-12-25T08:25:36.422Z,2.13
2022-12-25T08:28:04.394Z,2.60
2022-12-25T08:30:32.274Z,10.63
2022-12-25T08:33:00.125Z,1.83
2022-12-25T08:35:27.885Z,2.37
2022-12-25T08:37:55.664Z,2.40
2022-12-25T08:40:24.913Z,2.00
2022-12-25T08:42:52.826Z,2.10
2022-12-25T08:45:20.656Z,3.60
2022-12-25T08:47:48.430Z,3.43
2022-12-25T08:50:16.322Z,3.60
2022-12-25T08:52:44.321Z,2.30
2022-12-25T08:55:12.182Z,2.37
2022-12-25T08:57:41.263Z,3.30
2022-12-25T09:00:10.160Z,2.50
2022-12-25T09:02:38.123Z,3.27
2022-12-25T09:05:07.010Z,2.50
2022-12-25T09:07:34.770Z,3.60
2022-12-25T09:10:03.039Z,2.30
2022-12-25T09:12:30.834Z,2.53
2022-12-25T09:15:00.025Z,2.27
2022-12-25T09:17:31.152Z,2.40
2022-12-25T09:19:58.958Z,3.07
2022-12-25T09:22:26.953Z,4.20
2022-12-25T09:24:54.704Z,3.67
2022-12-25T09:27:22.522Z,2.70
2022-12-25T09:29:50.675Z,2.20
2022-12-25T09:32:19.957Z,2.80
2022-12-25T09:34:47.761Z,2.80
2022-12-25T09:37:15.549Z,3.63
2022-12-25T09:39:46.342Z,2.10
2022-12-25T09:42:18.359Z,4.43
2022-12-25T09:44:50.833Z,2.77
2022-12-25T09:47:24.056Z,2.03
2022-12-25T09:50:04.407Z,2.57
2022-12-25T09:52:38.487Z,3.30
2022-12-25T09:55:19.608Z,2.40
2022-12-25T09:57:52.351Z,2.10
2022-12-25T10:00:21.948Z,9.83
2022-12-25T10:03:16.032Z,2.50
2022-12-25T10:06:08.723Z,3.70
2022-12-25T10:09:02.684Z,2.73
2022-12-25T10:11:42.788Z,2.03
2022-12-25T10:14:23.028Z,2.57
2022-12-25T10:17:00.250Z,3.13
2022-12-25T10:19:52.355Z,3.03
2022-12-25T10:22:26.602Z,2.77
2022-12-25T10:24:57.708Z,2.20
2022-12-25T10:27:32.590Z,2.37
2022-12-25T10:30:01.273Z,2.80
2022-12-25T10:32:29.271Z,5.90
2022-12-25T10:34:58.389Z,2.20
2022-12-25T10:37:26.307Z,2.63
2022-12-25T10:39:54.060Z,3.13
2022-12-25T10:42:36.865Z,2.50
2022-12-25T10:45:07.751Z,3.13
2022-12-25T10:47:37.944Z,3.67
2022-12-25T10:50:12.456Z,2.57
2022-12-25T10:52:55.057Z,4.43
2022-12-25T10:55:28.474Z,3.23
2022-12-25T10:57:58.586Z,12.33
2022-12-25T11:00:28.823Z,6.80
2022-12-25T11:02:57.092Z,2.83
2022-12-25T11:05:29.449Z,3.50
2022-12-25T11:08:00.000Z,2.37
2022-12-25T11:10:31.529Z,3.80
2022-12-25T11:13:01.019Z,19.00
2022-12-25T11:15:36.500Z,3.20
2022-12-25T11:18:05.127Z,2.77
2022-12-25T11:20:34.277Z,2.63
2022-12-25T11:23:02.082Z,4.70
2022-12-25T11:25:29.959Z,3.07
2022-12-25T11:28:00.539Z,2.33
2022-12-25T11:30:30.532Z,3.50
2022-12-25T11:33:02.613Z,3.57
2022-12-25T11:35:40.296Z,2.83
2022-12-25T11:38:10.437Z,3.23
2022-12-25T11:40:45.069Z,3.50
2022-12-25T11:43:18.364Z,4.00
2022-12-25T11:45:51.055Z,3.20
2022-12-25T11:48:23.167Z,2.57
2022-12-25T11:50:56.298Z,3.03
2022-12-25T11:53:39.807Z,2.40
2022-12-25T11:56:10.712Z,2.97
2022-12-25T11:58:41.832Z,2.47
2022-12-25T12:01:19.633Z,2.33
2022-12-25T12:03:47.699Z,2.73
2022-12-25T12:06:21.316Z,3.17
2022-12-25T12:08:54.295Z,2.80
2022-12-25T12:11:27.254Z,2.63
2022-12-25T12:14:06.066Z,3.20
2022-12-25T12:16:35.394Z,3.73
2022-12-25T12:19:12.708Z,3.80
2022-12-25T12:21:44.078Z,2.50
2022-12-25T12:24:17.015Z,5.17
2022-12-25T12:26:47.410Z,3.60
2022-12-25T12:29:26.743Z,5.10
2022-12-25T12:31:56.517Z,3.10
2022-12-25T12:34:27.395Z,2.50
2022-12-25T12:37:02.625Z,2.97
2022-12-25T12:39:35.678Z,2.80
2022-12-25T12:42:03.806Z,2.50
2022-12-25T12:44:34.968Z,4.20
2022-12-25T12:47:03.697Z,2.10
2022-12-25T12:49:33.594Z,2.53
2022-12-25T12:52:14.235Z,3.13
2022-12-25T12:54:55.664Z,2.30
2022-12-25T12:57:29.255Z,3.37
2022-12-25T13:00:01.003Z,2.97
2022-12-25T13:03:08.309Z,3.63
2022-12-25T13:05:41.476Z,5.10
2022-12-25T13:08:22.876Z,2.30
2022-12-25T13:10:53.460Z,2.70
2022-12-25T13:13:25.706Z,3.13
2022-12-25T13:15:55.931Z,6.20
2022-12-25T13:18:23.942Z,2.53
2022-12-25T13:20:56.039Z,5.30
2022-12-25T13:23:28.204Z,3.50
2022-12-25T13:25:57.352Z,3.00
2022-12-25T13:28:32.980Z,3.23
2022-12-25T13:31:06.606Z,2.33
2022-12-25T13:33:35.298Z,3.50
2022-12-25T13:36:04.143Z,2.50
2022-12-25T13:38:33.483Z,8.10
2022-12-25T13:41:18.776Z,5.07
2022-12-25T13:43:48.497Z,2.50
2022-12-25T13:46:32.375Z,3.27
2022-12-25T13:49:01.157Z,2.50
2022-12-25T13:51:31.120Z,3.80
2022-12-25T13:54:06.955Z,3.00
2022-12-25T13:56:36.222Z,2.40
2022-12-25T13:59:05.489Z,2.80
2022-12-25T14:01:33.472Z,3.67
2022-12-25T14:04:01.720Z,3.77
2022-12-25T14:06:31.412Z,4.23
2022-12-25T14:09:00.545Z,2.70
2022-12-25T14:11:32.132Z,2.80
2022-12-25T14:14:03.543Z,2.60
2022-12-25T14:16:31.507Z,2.93
2022-12-25T14:19:01.506Z,5.20
2022-12-25T14:21:32.568Z,3.53
2022-12-25T14:24:01.062Z,5.60
2022-12-25T14:26:32.178Z,5.50
2022-12-25T14:29:16.765Z,3.50
2022-12-25T14:31:46.341Z,2.63
2022-12-25T14:34:17.971Z,3.40
2022-12-25T14:36:46.091Z,5.20
2022-12-25T14:39:30.843Z,3.43
2022-12-25T14:42:00.857Z,3.73
2022-12-25T14:44:34.653Z,3.37
2022-12-25T14:47:13.419Z,2.70
2022-12-25T14:49:41.216Z,2.97
2022-12-25T14:52:17.740Z,3.20
2022-12-25T14:54:47.905Z,4.30
2022-12-25T14:57:30.508Z,3.67
2022-12-25T15:00:05.188Z,3.50
2022-12-25T15:02:43.871Z,4.30
2022-12-25T15:05:30.383Z,4.50
2022-12-25T15:08:22.201Z,4.10
2022-12-25T15:11:00.426Z,3.57
2022-12-25T15:13:30.659Z,7.07
2022-12-25T15:16:02.954Z,4.07
2022-12-25T15:18:35.376Z,3.13
2022-12-25T15:21:03.461Z,4.33
2022-12-25T15:23:31.250Z,3.53
2022-12-25T15:25:59.028Z,6.23
2022-12-25T15:28:29.675Z,4.50
2022-12-25T15:30:58.899Z,3.60
2022-12-25T15:33:26.736Z,4.70
2022-12-25T15:35:54.576Z,8.37
2022-12-25T15:38:22.333Z,12.70
2022-12-25T15:40:50.247Z,7.93
2022-12-25T15:43:39.822Z,10.73
2022-12-25T15:46:10.007Z,8.20
2022-12-25T15:48:37.767Z,5.07
2022-12-25T15:51:05.796Z,11.37
2022-12-25T15:53:33.552Z,6.40
2022-12-25T15:56:01.370Z,7.43
2022-12-25T15:58:29.356Z,6.10
2022-12-25T16:00:57.128Z,6.97
2022-12-25T16:03:26.275Z,7.87
2022-12-25T16:05:54.575Z,7.30
2022-12-25T16:08:22.662Z,5.63
2022-12-25T16:10:50.835Z,5.60
2022-12-25T16:13:21.360Z,8.20
2022-12-25T16:15:49.277Z,12.20
2022-12-25T16:18:17.127Z,6.60
2022-12-25T16:20:46.672Z,7.40
2022-12-25T16:23:14.473Z,6.30
2022-12-25T16:25:42.287Z,6.43
2022-12-25T16:28:10.477Z,8.13
2022-12-25T16:30:38.508Z,7.43
2022-12-25T16:33:07.001Z,15.00
2022-12-25T16:35:35.419Z,8.10
2022-12-25T16:38:04.825Z,8.77
2022-12-25T16:40:32.783Z,5.23
2022-12-25T16:43:00.857Z,9.60
2022-12-25T16:45:28.751Z,9.20
2022-12-25T16:47:57.766Z,6.03
2022-12-25T16:50:25.582Z,6.00
2022-12-25T16:52:53.400Z,10.83
2022-12-25T16:55:27.813Z,8.10
2022-12-25T16:57:57.699Z,12.90
2022-12-25T17:00:25.691Z,7.60
2022-12-25T17:02:54.373Z,8.23
2022-12-25T17:05:22.347Z,14.30
2022-12-25T17:07:50.418Z,9.00
2022-12-25T17:10:18.445Z,8.60
2022-12-25T17:12:47.579Z,10.20
2022-12-25T17:15:15.480Z,8.03
2022-12-25T17:17:43.266Z,8.60
2022-12-25T17:20:11.849Z,12.83
2022-12-25T17:22:39.748Z,9.83
2022-12-25T17:25:08.025Z,12.20
2022-12-25T17:27:35.835Z,7.80
2022-12-25T17:30:05.538Z,9.50
2022-12-25T17:32:34.953Z,10.07
2022-12-25T17:35:03.408Z,15.00
2022-12-25T17:37:31.937Z,11.10
2022-12-25T17:39:59.725Z,9.33
2022-12-25T17:42:27.588Z,11.17
2022-12-25T17:44:55.347Z,10.10
2022-12-25T17:47:24.494Z,13.93
2022-12-25T17:49:52.284Z,17.47
2022-12-25T17:52:20.197Z,15.90
2022-12-25T17:54:48.030Z,14.90
2022-12-25T17:57:15.769Z,17.50
2022-12-25T17:59:43.528Z,16.33
2022-12-25T18:02:12.436Z,15.10
2022-12-25T18:04:41.677Z,14.60
2022-12-25T18:07:09.439Z,15.73
2022-12-25T18:09:37.811Z,10.13
2022-12-25T18:12:06.354Z,9.60
2022-12-25T18:14:34.150Z,12.90
2022-12-25T18:17:01.948Z,7.03
2022-12-25T18:19:29.767Z,7.60
2022-12-25T18:21:59.015Z,7.07
2022-12-25T18:24:26.786Z,11.00
2022-12-25T18:26:54.585Z,8.10
2022-12-25T18:29:22.524Z,6.47
2022-12-25T18:31:50.542Z,8.43
2022-12-25T18:34:18.381Z,7.03
2022-12-25T18:36:46.158Z,12.50
2022-12-25T18:39:15.442Z,6.90
2022-12-25T18:41:57.220Z,10.23
2022-12-25T18:44:25.010Z,8.47
2022-12-25T18:46:52.801Z,8.40
2022-12-25T18:49:20.677Z,10.10
2022-12-25T18:51:49.880Z,10.37
2022-12-25T18:54:19.176Z,8.17
2022-12-25T18:56:52.059Z,10.97
2022-12-25T18:59:21.230Z,7.90
2022-12-25T19:01:49.173Z,7.30
2022-12-25T19:04:17.283Z,7.30
2022-12-25T19:06:45.163Z,13.37
2022-12-25T19:09:13.003Z,6.00
2022-12-25T19:11:46.615Z,5.73
2022-12-25T19:14:15.001Z,5.03
2022-12-25T19:16:42.816Z,9.10
2022-12-25T19:19:10.657Z,5.00
2022-12-25T19:21:38.558Z,5.87
2022-12-25T19:24:07.218Z,4.20
2022-12-25T19:26:35.786Z,5.53
2022-12-25T19:29:04.921Z,5.33
2022-12-25T19:31:32.792Z,4.37
2022-12-25T19:34:00.625Z,7.00
2022-12-25T19:36:28.447Z,5.70
2022-12-25T19:38:56.234Z,7.30
2022-12-25T19:41:24.109Z,6.80
2022-12-25T19:43:52.322Z,5.30
2022-12-25T19:46:24.065Z,11.40
2022-12-25T19:48:53.299Z,6.83
2022-12-25T19:51:23.585Z,6.57
2022-12-25T19:53:51.912Z,6.13
2022-12-25T19:56:20.229Z,5.90
2022-12-25T19:58:48.047Z,5.03
2022-12-25T20:01:17.649Z,5.87
2022-12-25T20:03:46.996Z,5.03
2022-12-25T20:06:18.755Z,5.53
2022-12-25T20:08:47.229Z,4.33
2022-12-25T20:11:15.084Z,4.00
2022-12-25T20:13:42.867Z,4.17
2022-12-25T20:16:11.311Z,4.63
2022-12-25T20:18:39.887Z,4.73
2022-12-25T20:21:13.914Z,4.00
2022-12-25T20:23:42.290Z,3.93
2022-12-25T20:26:11.626Z,2.83
2022-12-25T20:28:41.540Z,4.60
2022-12-25T20:31:11.376Z,3.00
2022-12-25T20:33:39.305Z,2.90
2022-12-25T20:36:10.058Z,3.67
2022-12-25T20:38:37.897Z,3.70
2022-12-25T20:41:26.892Z,3.60
2022-12-25T20:43:56.415Z,2.80
2022-12-25T20:46:24.324Z,3.20
2022-12-25T20:48:52.786Z,3.27
2022-12-25T20:51:24.324Z,7.17
2022-12-25T20:53:52.596Z,6.43
2022-12-25T20:56:22.906Z,3.20
2022-12-25T20:58:55.057Z,4.03
2022-12-25T21:01:22.892Z,4.13
2022-12-25T21:03:57.157Z,6.37
2022-12-25T21:06:26.879Z,5.17
2022-12-25T21:08:54.823Z,3.40
2022-12-25T21:11:22.740Z,3.40
2022-12-25T21:13:50.917Z,3.53
2022-12-25T21:16:21.418Z,3.80
2022-12-25T21:18:50.487Z,2.90
2022-12-25T21:21:18.286Z,2.80
2022-12-25T21:23:47.699Z,3.67
2022-12-25T21:26:19.236Z,4.17
2022-12-25T21:28:47.053Z,4.87
2022-12-25T21:31:14.950Z,5.87
2022-12-25T21:33:54.397Z,4.57
2022-12-25T21:36:26.926Z,4.90
2022-12-25T21:38:58.930Z,7.67
2022-12-25T21:41:27.960Z,5.10
2022-12-25T21:43:56.330Z,5.40
2022-12-25T21:46:24.926Z,4.30
2022-12-25T21:48:53.127Z,3.40
2022-12-25T21:51:41.127Z,3.60
2022-12-25T21:54:11.500Z,5.03
2022-12-25T21:56:44.491Z,3.40
2022-12-25T21:59:15.978Z,3.70
2022-12-25T22:01:44.723Z,4.37
2022-12-25T22:04:13.995Z,4.37
2022-12-25T22:06:59.753Z,5.63
2022-12-25T22:09:28.969Z,4.77
2022-12-25T22:12:10.793Z,6.50
2022-12-25T22:14:57.824Z,6.80
2022-12-25T22:17:45.469Z,4.43
2022-12-25T22:20:16.361Z,4.50
2022-12-25T22:22:46.378Z,4.70
2022-12-25T22:25:16.214Z,3.90
2022-12-25T22:27:45.470Z,3.60
2022-12-25T22:30:15.402Z,4.03
2022-12-25T22:32:43.701Z,3.83
2022-12-25T22:35:13.015Z,5.03
2022-12-25T22:37:42.145Z,4.20
2022-12-25T22:40:14.496Z,3.70
2022-12-25T22:42:43.835Z,5.23
2022-12-25T22:45:12.632Z,3.60
2022-12-25T22:47:41.019Z,4.20
2022-12-25T22:50:09.604Z,3.90
2022-12-25T22:52:37.990Z,5.10
2022-12-25T22:55:07.952Z,4.33
2022-12-25T22:57:35.933Z,3.60
2022-12-25T23:02:40.626Z,4.53
2022-12-25T23:05:09.215Z,5.37
2022-12-25T23:07:37.076Z,3.50
2022-12-25T23:10:06.563Z,5.50
2022-12-25T23:12:51.835Z,3.70
2022-12-25T23:15:19.921Z,3.47
2022-12-25T23:18:06.685Z,4.40
2022-12-25T23:20:52.301Z,3.13
2022-12-25T23:23:37.771Z,4.83
2022-12-25T23:26:08.510Z,4.67
2022-12-25T23:29:05.680Z,3.33
2022-12-25T23:31:36.281Z,3.67
2022-12-25T23:34:06.752Z,4.13
2022-12-25T23:36:35.206Z,3.77
2022-12-25T23:39:09.702Z,3.40
2022-12-25T23:41:38.826Z,4.00
2022-12-25T23:44:07.013Z,4.60
2022-12-25T23:46:35.824Z,3.40
2022-12-25T23:49:05.534Z,3.17
2022-12-25T23:51:33.571Z,3.90
2022-12-25T23:54:01.426Z,3.20
2022-12-25T23:56:29.405Z,3.27
2022-12-25T23:58:57.171Z,9.77
